WMT68XN LRIA-LTFM
Flight info
| Callsign | WMT68XN |
|---|---|
| Flight time | N/A |
| Altitude | 37000 |
| Route | ABOLO T74 GUXVA DCT EVIKA DCT PILAT DCT LUGEB DCT MATEL L620 RIXEN |
| Aircraft | A320/M-SDE1E2E3FGIJ1J4RWXY/LB1 |
Departure
| Time | 2026-04-21 14:23 |
|---|---|
| Airport | Iaşi International Airport (LRIA) |
Arrival
| Time | N/A |
|---|---|
| Airport | İstanbul Airport (LTFM) |
| Time | Latitude | Longitude | Altitude | Speed | Heading |
|---|---|---|---|---|---|
| 2026-04-21 13:56 | 47.17568 | 27.61953 | 372 ft | 0 kts | 274° |
| 2026-04-21 14:15 | 47.17568 | 27.61965 | 371 ft | 3 kts | 269° |
| 2026-04-21 14:16 | 47.17570 | 27.61994 | 371 ft | 3 kts | 245° |
| 2026-04-21 14:16 | 47.17580 | 27.62015 | 371 ft | 3 kts | 206° |
| 2026-04-21 14:16 | 47.17597 | 27.62021 | 371 ft | 2 kts | 163° |
| 2026-04-21 14:16 | 47.17603 | 27.62017 | 371 ft | 0 kts | 154° |
| 2026-04-21 14:20 | 47.17579 | 27.62039 | 371 ft | 10 kts | 141° |
| 2026-04-21 14:20 | 47.17492 | 27.62111 | 371 ft | 16 kts | 148° |
| 2026-04-21 14:20 | 47.17392 | 27.62199 | 371 ft | 18 kts | 150° |
| 2026-04-21 14:20 | 47.17283 | 27.62312 | 364 ft | 23 kts | 126° |
| 2026-04-21 14:21 | 47.17319 | 27.62501 | 361 ft | 19 kts | 69° |
| 2026-04-21 14:21 | 47.17365 | 27.62667 | 349 ft | 17 kts | 104° |
| 2026-04-21 14:21 | 47.17298 | 27.62734 | 344 ft | 12 kts | 146° |
| 2026-04-21 14:21 | 47.17215 | 27.62820 | 336 ft | 17 kts | 134° |
| 2026-04-21 14:22 | 47.17137 | 27.62944 | 331 ft | 14 kts | 181° |
| 2026-04-21 14:22 | 47.17122 | 27.62934 | 332 ft | 3 kts | 225° |
| 2026-04-21 14:22 | 47.17140 | 27.62891 | 334 ft | 8 kts | 319° |
| 2026-04-21 14:22 | 47.17288 | 27.62752 | 344 ft | 59 kts | 329° |
| 2026-04-21 14:23 | 47.17827 | 27.62272 | 367 ft | 119 kts | 328° |
| 2026-04-21 14:23 | 47.18653 | 27.61536 | 573 ft | 148 kts | 329° |
| 2026-04-21 14:23 | 47.19512 | 27.60796 | 1358 ft | 140 kts | 333° |
| 2026-04-21 14:23 | 47.20401 | 27.60117 | 1864 ft | 154 kts | 332° |
| 2026-04-21 14:24 | 47.21417 | 27.59349 | 2169 ft | 175 kts | 334° |
| 2026-04-21 14:24 | 47.22576 | 27.58504 | 2420 ft | 197 kts | 334° |
| 2026-04-21 14:24 | 47.23846 | 27.57535 | 2765 ft | 216 kts | 327° |
| 2026-04-21 14:24 | 47.24753 | 27.55712 | 3331 ft | 234 kts | 286° |
| 2026-04-21 14:25 | 47.24654 | 27.53312 | 4195 ft | 244 kts | 248° |
| 2026-04-21 14:25 | 47.23543 | 27.51414 | 5087 ft | 254 kts | 211° |
| 2026-04-21 14:25 | 47.21825 | 27.50782 | 5942 ft | 260 kts | 180° |
| 2026-04-21 14:25 | 47.20024 | 27.50958 | 6889 ft | 260 kts | 173° |
| 2026-04-21 14:26 | 47.18224 | 27.51356 | 7749 ft | 263 kts | 174° |
| 2026-04-21 14:26 | 47.16402 | 27.51231 | 8543 ft | 265 kts | 199° |
| 2026-04-21 14:26 | 47.14746 | 27.49933 | 9039 ft | 277 kts | 220° |
| 2026-04-21 14:26 | 47.13196 | 27.48200 | 9822 ft | 282 kts | 221° |
| 2026-04-21 14:27 | 47.11629 | 27.46412 | 10423 ft | 294 kts | 221° |
| 2026-04-21 14:27 | 47.09956 | 27.44489 | 10686 ft | 316 kts | 221° |
| 2026-04-21 14:27 | 47.08194 | 27.42474 | 11260 ft | 325 kts | 221° |
| 2026-04-21 14:27 | 47.06417 | 27.40461 | 11978 ft | 329 kts | 221° |
| 2026-04-21 14:28 | 47.04569 | 27.38381 | 12720 ft | 332 kts | 220° |
| 2026-04-21 14:28 | 47.02747 | 27.36340 | 13472 ft | 335 kts | 220° |
| 2026-04-21 14:28 | 47.00887 | 27.34261 | 14160 ft | 338 kts | 220° |
| 2026-04-21 14:28 | 46.99002 | 27.32173 | 14805 ft | 341 kts | 220° |
| 2026-04-21 14:29 | 46.97077 | 27.30120 | 15427 ft | 344 kts | 219° |
| 2026-04-21 14:29 | 46.95117 | 27.28079 | 16063 ft | 347 kts | 218° |
| 2026-04-21 14:29 | 46.93133 | 27.26035 | 16699 ft | 350 kts | 218° |
| 2026-04-21 14:29 | 46.91135 | 27.23980 | 17319 ft | 353 kts | 218° |
| 2026-04-21 14:30 | 46.89121 | 27.21899 | 17939 ft | 356 kts | 218° |
| 2026-04-21 14:30 | 46.87095 | 27.19796 | 18529 ft | 359 kts | 218° |
| 2026-04-21 14:30 | 46.85056 | 27.17672 | 19081 ft | 361 kts | 218° |
| 2026-04-21 14:30 | 46.83002 | 27.15531 | 19639 ft | 364 kts | 218° |
| 2026-04-21 14:31 | 46.80930 | 27.13373 | 20196 ft | 367 kts | 218° |
| 2026-04-21 14:31 | 46.78834 | 27.11216 | 20726 ft | 371 kts | 215° |
| 2026-04-21 14:31 | 46.76515 | 27.09508 | 21233 ft | 378 kts | 202° |
| 2026-04-21 14:31 | 46.73949 | 27.08572 | 21734 ft | 385 kts | 189° |
| 2026-04-21 14:32 | 46.71248 | 27.08490 | 22224 ft | 392 kts | 176° |
| 2026-04-21 14:32 | 46.68563 | 27.09288 | 22716 ft | 397 kts | 166° |
| 2026-04-21 14:32 | 46.65894 | 27.10374 | 23208 ft | 400 kts | 168° |
| 2026-04-21 14:32 | 46.63198 | 27.11458 | 23650 ft | 403 kts | 168° |
| 2026-04-21 14:33 | 46.60481 | 27.12542 | 24030 ft | 407 kts | 168° |
| 2026-04-21 14:33 | 46.57741 | 27.13632 | 24422 ft | 410 kts | 168° |
| 2026-04-21 14:33 | 46.54981 | 27.14727 | 24814 ft | 413 kts | 168° |
| 2026-04-21 14:33 | 46.52203 | 27.15830 | 25199 ft | 415 kts | 168° |
| 2026-04-21 14:34 | 46.49405 | 27.16936 | 25578 ft | 418 kts | 169° |
| 2026-04-21 14:34 | 46.46587 | 27.18052 | 25951 ft | 421 kts | 169° |
| 2026-04-21 14:34 | 46.43744 | 27.19180 | 26309 ft | 424 kts | 169° |
| 2026-04-21 14:34 | 46.40888 | 27.20316 | 26668 ft | 427 kts | 169° |
| 2026-04-21 14:35 | 46.38012 | 27.21456 | 27049 ft | 430 kts | 171° |
| 2026-04-21 14:35 | 46.35119 | 27.22598 | 27413 ft | 432 kts | 171° |
| 2026-04-21 14:35 | 46.32250 | 27.23729 | 27763 ft | 435 kts | 171° |
| 2026-04-21 14:35 | 46.29829 | 27.24683 | 28062 ft | 437 kts | 171° |
| 2026-04-21 14:36 | 46.26793 | 27.25881 | 28433 ft | 440 kts | 171° |
| 2026-04-21 14:36 | 46.23828 | 27.27050 | 28790 ft | 443 kts | 171° |
| 2026-04-21 14:36 | 46.20841 | 27.28225 | 29149 ft | 446 kts | 171° |
| 2026-04-21 14:36 | 46.17836 | 27.29405 | 29479 ft | 449 kts | 172° |
| 2026-04-21 14:37 | 46.14816 | 27.30588 | 29812 ft | 451 kts | 172° |
| 2026-04-21 14:37 | 46.11778 | 27.31778 | 30150 ft | 453 kts | 172° |
| 2026-04-21 14:37 | 46.08729 | 27.32975 | 30434 ft | 456 kts | 172° |
| 2026-04-21 14:37 | 46.05661 | 27.34173 | 30715 ft | 458 kts | 172° |
| 2026-04-21 14:38 | 46.02579 | 27.35374 | 31069 ft | 459 kts | 172° |
| 2026-04-21 14:38 | 45.99498 | 27.36574 | 31487 ft | 458 kts | 172° |
| 2026-04-21 14:38 | 45.96418 | 27.37776 | 31887 ft | 458 kts | 171° |
| 2026-04-21 14:38 | 45.93384 | 27.38961 | 32288 ft | 458 kts | 171° |
| 2026-04-21 14:39 | 45.90309 | 27.40157 | 32665 ft | 458 kts | 172° |
| 2026-04-21 14:39 | 45.87233 | 27.41350 | 33069 ft | 458 kts | 172° |
| 2026-04-21 14:39 | 45.84161 | 27.42542 | 33474 ft | 457 kts | 172° |
| 2026-04-21 14:39 | 45.81091 | 27.43733 | 33882 ft | 457 kts | 172° |
| 2026-04-21 14:40 | 45.78018 | 27.44923 | 34236 ft | 457 kts | 172° |
| 2026-04-21 14:40 | 45.74945 | 27.46109 | 34557 ft | 457 kts | 172° |
| 2026-04-21 14:40 | 45.71878 | 27.47291 | 34867 ft | 457 kts | 171° |
| 2026-04-21 14:40 | 45.68797 | 27.48474 | 35165 ft | 458 kts | 171° |
| 2026-04-21 14:41 | 45.65723 | 27.49654 | 35439 ft | 458 kts | 171° |
| 2026-04-21 14:41 | 45.62645 | 27.50864 | 35717 ft | 460 kts | 168° |
| 2026-04-21 14:41 | 45.59651 | 27.52574 | 35994 ft | 468 kts | 158° |
| 2026-04-21 14:41 | 45.56763 | 27.54746 | 36265 ft | 469 kts | 158° |
| 2026-04-21 14:42 | 45.53876 | 27.56931 | 36533 ft | 470 kts | 157° |
| 2026-04-21 14:42 | 45.50987 | 27.59106 | 36805 ft | 470 kts | 157° |
| 2026-04-21 14:42 | 45.48092 | 27.61271 | 36989 ft | 471 kts | 157° |
| 2026-04-21 14:43 | 45.42270 | 27.65609 | 37024 ft | 473 kts | 158° |
| 2026-04-21 14:43 | 45.36436 | 27.69947 | 37028 ft | 473 kts | 157° |
| 2026-04-21 14:44 | 45.30603 | 27.74286 | 37031 ft | 473 kts | 157° |
| 2026-04-21 14:44 | 45.24753 | 27.78631 | 37029 ft | 480 kts | 157° |
| 2026-04-21 14:45 | 45.18752 | 27.83061 | 37033 ft | 490 kts | 157° |
| 2026-04-21 14:45 | 45.12692 | 27.87529 | 37014 ft | 491 kts | 158° |
| 2026-04-21 14:46 | 45.06625 | 27.92009 | 37029 ft | 492 kts | 158° |
| 2026-04-21 14:46 | 45.00555 | 27.96480 | 37032 ft | 492 kts | 158° |
| 2026-04-21 14:47 | 44.94474 | 28.00945 | 37035 ft | 493 kts | 158° |
| 2026-04-21 14:47 | 44.88385 | 28.05391 | 37043 ft | 493 kts | 158° |
| 2026-04-21 14:48 | 44.82251 | 28.09653 | 37016 ft | 487 kts | 166° |
| 2026-04-21 14:48 | 44.75800 | 28.12271 | 37029 ft | 481 kts | 171° |
| 2026-04-21 14:49 | 44.69330 | 28.14693 | 37036 ft | 481 kts | 171° |
| 2026-04-21 14:49 | 44.63945 | 28.16707 | 37035 ft | 482 kts | 171° |
| 2026-04-21 14:50 | 44.57469 | 28.19146 | 37015 ft | 482 kts | 171° |
| 2026-04-21 14:50 | 44.50987 | 28.21577 | 37024 ft | 482 kts | 172° |
| 2026-04-21 14:51 | 44.44499 | 28.23983 | 37042 ft | 482 kts | 172° |
| 2026-04-21 14:51 | 44.38013 | 28.26392 | 37015 ft | 482 kts | 172° |
| 2026-04-21 14:52 | 44.31531 | 28.28810 | 37025 ft | 482 kts | 172° |
| 2026-04-21 14:52 | 44.25086 | 28.31210 | 37022 ft | 482 kts | 172° |
| 2026-04-21 14:53 | 44.18602 | 28.33606 | 37037 ft | 482 kts | 172° |
| 2026-04-21 14:53 | 44.12122 | 28.35999 | 37021 ft | 481 kts | 172° |
| 2026-04-21 14:54 | 44.05650 | 28.38381 | 37027 ft | 481 kts | 172° |
| 2026-04-21 14:54 | 43.99171 | 28.40752 | 37033 ft | 481 kts | 172° |
| 2026-04-21 14:55 | 43.92699 | 28.43123 | 37023 ft | 481 kts | 172° |
| 2026-04-21 14:55 | 43.86227 | 28.45489 | 37020 ft | 481 kts | 172° |
| 2026-04-21 14:56 | 43.79753 | 28.47849 | 37024 ft | 481 kts | 172° |
| 2026-04-21 14:56 | 43.73283 | 28.50204 | 37028 ft | 481 kts | 171° |
| 2026-04-21 14:57 | 43.66842 | 28.52837 | 36987 ft | 484 kts | 168° |
| 2026-04-21 14:57 | 43.60437 | 28.55739 | 37009 ft | 485 kts | 168° |
| 2026-04-21 14:58 | 43.54021 | 28.58611 | 37013 ft | 485 kts | 168° |
| 2026-04-21 14:58 | 43.47586 | 28.61392 | 37018 ft | 484 kts | 169° |
| 2026-04-21 14:59 | 43.41143 | 28.64133 | 37000 ft | 485 kts | 169° |
| 2026-04-21 14:59 | 43.34711 | 28.66887 | 37030 ft | 484 kts | 168° |
| 2026-04-21 15:00 | 43.28286 | 28.69646 | 37035 ft | 483 kts | 168° |
| 2026-04-21 15:00 | 43.21865 | 28.72391 | 37034 ft | 483 kts | 168° |
| 2026-04-21 15:01 | 43.15491 | 28.75116 | 37019 ft | 483 kts | 168° |
| 2026-04-21 15:01 | 43.09074 | 28.77848 | 37023 ft | 482 kts | 169° |
| 2026-04-21 15:02 | 43.02568 | 28.79117 | 37025 ft | 465 kts | 187° |
| 2026-04-21 15:02 | 42.96096 | 28.78931 | 37025 ft | 465 kts | 188° |
| 2026-04-21 15:03 | 42.89624 | 28.78759 | 37023 ft | 465 kts | 187° |
| 2026-04-21 15:03 | 42.83150 | 28.78587 | 36994 ft | 464 kts | 187° |
| 2026-04-21 15:03 | 42.79928 | 28.78502 | 36539 ft | 461 kts | 188° |
| 2026-04-21 15:04 | 42.76734 | 28.78420 | 36063 ft | 457 kts | 188° |
| 2026-04-21 15:04 | 42.73552 | 28.78339 | 35328 ft | 459 kts | 188° |
| 2026-04-21 15:04 | 42.70345 | 28.78253 | 34618 ft | 462 kts | 188° |
| 2026-04-21 15:04 | 42.67135 | 28.78162 | 34056 ft | 461 kts | 188° |
| 2026-04-21 15:05 | 42.63941 | 28.78074 | 33494 ft | 456 kts | 188° |
| 2026-04-21 15:05 | 42.57711 | 28.77912 | 31724 ft | 440 kts | 188° |
| 2026-04-21 15:05 | 42.54674 | 28.77839 | 30885 ft | 432 kts | 189° |
| 2026-04-21 15:06 | 42.51694 | 28.77768 | 30062 ft | 425 kts | 189° |
| 2026-04-21 15:06 | 42.48769 | 28.77695 | 29165 ft | 416 kts | 189° |
| 2026-04-21 15:06 | 42.45946 | 28.77629 | 28854 ft | 395 kts | 189° |
| 2026-04-21 15:06 | 42.43254 | 28.77570 | 28473 ft | 379 kts | 189° |
| 2026-04-21 15:07 | 42.40663 | 28.77505 | 28080 ft | 365 kts | 190° |
| 2026-04-21 15:07 | 42.38149 | 28.77433 | 27701 ft | 359 kts | 189° |
| 2026-04-21 15:07 | 42.35666 | 28.77356 | 27344 ft | 356 kts | 189° |
| 2026-04-21 15:07 | 42.33170 | 28.77282 | 26970 ft | 352 kts | 189° |
| 2026-04-21 15:08 | 42.30755 | 28.77215 | 26625 ft | 349 kts | 189° |
| 2026-04-21 15:08 | 42.28338 | 28.77149 | 26259 ft | 346 kts | 189° |
| 2026-04-21 15:08 | 42.25933 | 28.77084 | 25894 ft | 344 kts | 189° |
| 2026-04-21 15:08 | 42.23550 | 28.77018 | 25513 ft | 342 kts | 189° |
| 2026-04-21 15:09 | 42.21177 | 28.76951 | 25145 ft | 340 kts | 189° |
| 2026-04-21 15:09 | 42.18817 | 28.76887 | 24760 ft | 338 kts | 189° |
| 2026-04-21 15:09 | 42.16468 | 28.76824 | 24380 ft | 337 kts | 188° |
| 2026-04-21 15:09 | 42.14123 | 28.76763 | 23987 ft | 337 kts | 188° |
| 2026-04-21 15:10 | 42.11783 | 28.76704 | 23610 ft | 336 kts | 188° |
| 2026-04-21 15:10 | 42.09444 | 28.76646 | 23170 ft | 335 kts | 188° |
| 2026-04-21 15:10 | 42.07121 | 28.76606 | 22828 ft | 333 kts | 187° |
| 2026-04-21 15:10 | 42.04768 | 28.76652 | 22626 ft | 347 kts | 186° |
| 2026-04-21 15:11 | 42.02334 | 28.76745 | 22408 ft | 353 kts | 185° |
| 2026-04-21 15:11 | 41.99873 | 28.76864 | 22173 ft | 354 kts | 185° |
| 2026-04-21 15:11 | 41.97414 | 28.76993 | 21966 ft | 354 kts | 185° |
| 2026-04-21 15:11 | 41.94955 | 28.77114 | 21746 ft | 353 kts | 185° |
| 2026-04-21 15:12 | 41.92506 | 28.77222 | 21444 ft | 352 kts | 185° |
| 2026-04-21 15:12 | 41.90078 | 28.77327 | 21159 ft | 348 kts | 185° |
| 2026-04-21 15:12 | 41.87666 | 28.77428 | 20916 ft | 346 kts | 185° |
| 2026-04-21 15:12 | 41.85263 | 28.77522 | 20666 ft | 344 kts | 185° |
| 2026-04-21 15:13 | 41.82877 | 28.77614 | 20426 ft | 342 kts | 185° |
| 2026-04-21 15:13 | 41.80499 | 28.77686 | 20172 ft | 339 kts | 189° |
| 2026-04-21 15:13 | 41.78219 | 28.77231 | 19942 ft | 327 kts | 204° |
| 2026-04-21 15:13 | 41.76184 | 28.76065 | 19709 ft | 312 kts | 217° |
| 2026-04-21 15:14 | 41.74487 | 28.74338 | 19493 ft | 302 kts | 230° |
| 2026-04-21 15:14 | 41.73167 | 28.72195 | 19284 ft | 297 kts | 238° |
| 2026-04-21 15:14 | 41.71957 | 28.69955 | 19073 ft | 296 kts | 238° |
| 2026-04-21 15:14 | 41.70745 | 28.67728 | 18861 ft | 295 kts | 238° |
| 2026-04-21 15:15 | 41.69552 | 28.65543 | 18647 ft | 295 kts | 238° |
| 2026-04-21 15:15 | 41.68344 | 28.63333 | 18448 ft | 294 kts | 237° |
| 2026-04-21 15:15 | 41.67143 | 28.61134 | 18235 ft | 293 kts | 237° |
| 2026-04-21 15:15 | 41.65945 | 28.58938 | 18001 ft | 293 kts | 237° |
| 2026-04-21 15:16 | 41.64738 | 28.56732 | 17811 ft | 294 kts | 237° |
| 2026-04-21 15:16 | 41.63533 | 28.54533 | 17600 ft | 293 kts | 237° |
| 2026-04-21 15:16 | 41.62330 | 28.52339 | 17407 ft | 292 kts | 237° |
| 2026-04-21 15:16 | 41.61129 | 28.50151 | 17193 ft | 292 kts | 237° |
| 2026-04-21 15:17 | 41.59931 | 28.47973 | 16994 ft | 291 kts | 237° |
| 2026-04-21 15:17 | 41.58734 | 28.45795 | 16788 ft | 290 kts | 237° |
| 2026-04-21 15:17 | 41.57546 | 28.43631 | 16599 ft | 289 kts | 237° |
| 2026-04-21 15:17 | 41.56358 | 28.41461 | 16389 ft | 288 kts | 237° |
| 2026-04-21 15:18 | 41.55175 | 28.39305 | 16189 ft | 288 kts | 237° |
| 2026-04-21 15:18 | 41.53994 | 28.37157 | 15978 ft | 287 kts | 237° |
| 2026-04-21 15:18 | 41.52806 | 28.35014 | 15668 ft | 287 kts | 236° |
| 2026-04-21 15:18 | 41.51608 | 28.32891 | 15312 ft | 286 kts | 236° |
| 2026-04-21 15:19 | 41.50410 | 28.30787 | 14990 ft | 284 kts | 236° |
| 2026-04-21 15:19 | 41.49217 | 28.28699 | 14658 ft | 282 kts | 235° |
| 2026-04-21 15:19 | 41.48028 | 28.26619 | 14324 ft | 281 kts | 235° |
| 2026-04-21 15:19 | 41.46847 | 28.24548 | 13993 ft | 280 kts | 235° |
| 2026-04-21 15:20 | 41.45678 | 28.22489 | 13645 ft | 278 kts | 235° |
| 2026-04-21 15:20 | 41.44512 | 28.20436 | 13300 ft | 277 kts | 235° |
| 2026-04-21 15:20 | 41.43352 | 28.18399 | 12971 ft | 275 kts | 234° |
| 2026-04-21 15:20 | 41.41957 | 28.16673 | 12660 ft | 277 kts | 214° |
| 2026-04-21 15:21 | 41.40136 | 28.15815 | 12340 ft | 284 kts | 191° |
| 2026-04-21 15:21 | 41.38150 | 28.16072 | 11975 ft | 294 kts | 167° |
| 2026-04-21 15:21 | 41.36240 | 28.17095 | 11626 ft | 296 kts | 163° |
| 2026-04-21 15:21 | 41.34341 | 28.18164 | 11272 ft | 296 kts | 162° |
| 2026-04-21 15:22 | 41.32446 | 28.19236 | 10920 ft | 296 kts | 162° |
| 2026-04-21 15:22 | 41.30555 | 28.20307 | 10563 ft | 296 kts | 162° |
| 2026-04-21 15:22 | 41.28657 | 28.21379 | 10213 ft | 296 kts | 162° |
| 2026-04-21 15:22 | 41.26762 | 28.22445 | 9853 ft | 296 kts | 162° |
| 2026-04-21 15:23 | 41.24879 | 28.23499 | 9507 ft | 294 kts | 162° |
| 2026-04-21 15:23 | 41.23011 | 28.24540 | 9194 ft | 291 kts | 162° |
| 2026-04-21 15:23 | 41.21140 | 28.25581 | 8881 ft | 289 kts | 162° |
| 2026-04-21 15:23 | 41.19282 | 28.26615 | 8541 ft | 288 kts | 162° |
| 2026-04-21 15:24 | 41.17462 | 28.27629 | 8191 ft | 287 kts | 162° |
| 2026-04-21 15:24 | 41.15605 | 28.28665 | 7821 ft | 287 kts | 162° |
| 2026-04-21 15:24 | 41.13779 | 28.29682 | 7601 ft | 282 kts | 162° |
| 2026-04-21 15:24 | 41.11996 | 28.30671 | 7255 ft | 282 kts | 162° |
| 2026-04-21 15:25 | 41.10167 | 28.31685 | 6943 ft | 281 kts | 162° |
| 2026-04-21 15:25 | 41.08372 | 28.32679 | 6633 ft | 279 kts | 162° |
| 2026-04-21 15:25 | 41.06608 | 28.33656 | 6333 ft | 278 kts | 161° |
| 2026-04-21 15:25 | 41.04811 | 28.34650 | 5961 ft | 273 kts | 161° |
| 2026-04-21 15:26 | 41.03067 | 28.35619 | 5374 ft | 270 kts | 161° |
| 2026-04-21 15:26 | 41.01388 | 28.36554 | 5194 ft | 252 kts | 160° |
| 2026-04-21 15:26 | 40.99848 | 28.37412 | 5071 ft | 236 kts | 161° |
| 2026-04-21 15:26 | 40.98390 | 28.38407 | 4975 ft | 238 kts | 148° |
| 2026-04-21 15:27 | 40.97146 | 28.39910 | 4970 ft | 242 kts | 132° |
| 2026-04-21 15:27 | 40.96215 | 28.41811 | 4980 ft | 256 kts | 122° |
| 2026-04-21 15:27 | 40.95330 | 28.43873 | 4978 ft | 264 kts | 122° |
| 2026-04-21 15:27 | 40.94415 | 28.45993 | 4978 ft | 266 kts | 123° |
| 2026-04-21 15:28 | 40.93496 | 28.48118 | 4978 ft | 267 kts | 123° |
| 2026-04-21 15:28 | 40.92576 | 28.50241 | 4977 ft | 266 kts | 122° |
| 2026-04-21 15:28 | 40.91655 | 28.52368 | 4978 ft | 266 kts | 122° |
| 2026-04-21 15:28 | 40.90734 | 28.54495 | 4978 ft | 267 kts | 122° |
| 2026-04-21 15:29 | 40.89854 | 28.56653 | 4980 ft | 268 kts | 114° |
| 2026-04-21 15:29 | 40.89485 | 28.59070 | 4981 ft | 273 kts | 91° |
| 2026-04-21 15:29 | 40.89825 | 28.61583 | 4983 ft | 283 kts | 72° |